Time,TemperatureF,DewpointF,PressureIn,WindDirection,WindDirectionDegrees,WindSpeedMPH,WindSpeedGustMPH,Humidity,HourlyPrecipIn,Conditions,Clouds,dailyrainin,SoftwareType,DateUTC
2013-02-05 05:05:00,10.5,6.6,29.90,SE,128,0.0,1.0,84,0.00,,,0.00,Wunderground v.1.15,2013-02-05 10:05:00,
2013-02-05 05:10:00,10.7,6.8,29.90,ESE,113,0.0,6.0,84,0.00,,,0.00,Wunderground v.1.15,2013-02-05 10:10:00,
2013-02-05 05:20:00,11.3,7.1,29.90,ENE,76,1.0,1.0,83,0.00,,,0.00,Wunderground v.1.15,2013-02-05 10:20:00,
2013-02-05 05:25:00,11.6,7.2,29.89,ESE,115,0.0,6.0,82,0.00,,,0.00,Wunderground v.1.15,2013-02-05 10:25:00,
2013-02-05 05:30:00,11.8,7.4,29.89,ENE,75,1.0,6.0,82,0.00,,,0.00,Wunderground v.1.15,2013-02-05 10:30:00,
2013-02-05 05:35:00,12.0,7.8,29.89,East,83,1.0,6.0,83,0.00,,,0.00,Wunderground v.1.15,2013-02-05 10:35:00,
2013-02-05 05:40:00,12.3,7.9,29.89,East,94,1.0,1.0,82,0.00,,,0.00,Wunderground v.1.15,2013-02-05 10:40:00,
2013-02-05 05:45:00,12.5,8.0,29.88,East,94,1.0,6.0,82,0.00,,,0.00,Wunderground v.1.15,2013-02-05 10:45:00,
2013-02-05 05:50:00,12.6,7.9,29.88,SE,133,1.0,6.0,81,0.00,,,0.00,Wunderground v.1.15,2013-02-05 10:50:00,
2013-02-05 06:00:00,12.6,7.3,29.88,East,94,2.0,2.0,79,0.00,,,0.00,Wunderground v.1.15,2013-02-05 11:00:00,
2013-02-05 06:05:00,12.5,6.9,29.88,SE,126,1.0,3.0,78,0.00,,,0.00,Wunderground v.1.15,2013-02-05 11:05:00,
2013-02-05 06:10:00,12.6,7.0,29.88,ESE,110,1.0,6.0,78,0.00,,,0.00,Wunderground v.1.15,2013-02-05 11:10:00,
2013-02-05 06:15:00,12.6,7.0,29.88,East,86,1.0,6.0,78,0.00,,,0.00,Wunderground v.1.15,2013-02-05 11:15:00,
2013-02-05 06:20:00,12.6,7.0,29.87,ESE,111,1.0,1.0,78,0.00,,,0.00,Wunderground v.1.15,2013-02-05 11:20:00,
2013-02-05 06:25:00,12.6,7.0,29.88,ESE,121,1.0,6.0,78,0.00,,,0.00,Wunderground v.1.15,2013-02-05 11:25:00,
2013-02-05 06:30:00,12.6,7.0,29.88,SSE,165,0.0,6.0,78,0.00,,,0.00,Wunderground v.1.15,2013-02-05 11:30:00,
2013-02-05 06:35:00,12.6,7.0,29.88,SSE,164,0.0,6.0,78,0.00,,,0.00,Wunderground v.1.15,2013-02-05 11:35:00,
2013-02-05 06:40:00,12.6,6.8,29.88,SE,125,1.0,6.0,77,0.00,,,0.00,Wunderground v.1.15,2013-02-05 11:40:00,
2013-02-05 06:50:00,12.7,6.9,29.87,SSE,161,0.0,6.0,77,0.00,,,0.00,Wunderground v.1.15,2013-02-05 11:50:00,
2013-02-05 06:55:00,12.7,6.9,29.87,ESE,107,0.0,6.0,77,0.00,,,0.00,Wunderground v.1.15,2013-02-05 11:55:00,
2013-02-05 07:00:00,12.8,6.9,29.87,ESE,106,0.0,6.0,77,0.00,,,0.00,Wunderground v.1.15,2013-02-05 12:00:00,
2013-02-05 07:05:00,12.8,7.2,29.87,SE,145,0.0,6.0,78,0.00,,,0.00,Wunderground v.1.15,2013-02-05 12:05:00,
2013-02-05 07:10:00,12.8,7.2,29.86,East,96,1.0,6.0,78,0.00,,,0.00,Wunderground v.1.15,2013-02-05 12:10:00,
2013-02-05 07:20:00,12.8,7.5,29.85,East,90,2.0,2.0,79,0.00,,,0.00,Wunderground v.1.15,2013-02-05 12:20:00,
2013-02-05 07:25:00,12.8,7.5,29.85,SE,130,1.0,6.0,79,0.00,,,0.00,Wunderground v.1.15,2013-02-05 12:25:00,
2013-02-05 07:30:00,12.8,7.5,29.85,East,97,1.0,6.0,79,0.00,,,0.00,Wunderground v.1.15,2013-02-05 12:30:00,
2013-02-05 07:40:00,13.0,7.1,29.85,SE,125,1.0,1.0,77,0.00,,,0.00,Wunderground v.1.15,2013-02-05 12:40:00,
2013-02-05 07:45:00,13.0,7.1,29.85,ESE,103,2.0,4.0,77,0.00,,,0.00,Wunderground v.1.15,2013-02-05 12:45:00,
2013-02-05 07:55:00,13.4,7.5,29.85,ENE,57,2.0,6.0,77,0.00,,,0.00,Wunderground v.1.15,2013-02-05 12:55:00,
2013-02-05 08:00:00,13.5,7.6,29.84,East,89,2.0,2.0,77,0.00,,,0.00,Wunderground v.1.15,2013-02-05 13:00:00,
2013-02-05 08:05:00,13.6,7.7,29.84,ESE,105,2.0,6.0,77,0.00,,,0.00,Wunderground v.1.15,2013-02-05 13:05:00,
2013-02-05 08:10:00,13.8,7.9,29.84,ENE,71,2.0,6.0,77,0.00,,,0.00,Wunderground v.1.15,2013-02-05 13:10:00,
2013-02-05 08:15:00,14.0,8.1,29.84,East,96,2.0,6.0,77,0.00,,,0.00,Wunderground v.1.15,2013-02-05 13:15:00,
2013-02-05 08:20:00,14.1,8.2,29.84,SE,131,2.0,6.0,77,0.00,,,0.00,Wunderground v.1.15,2013-02-05 13:20:00,
2013-02-05 08:30:00,14.4,8.5,29.84,ESE,110,1.0,6.0,77,0.00,,,0.00,Wunderground v.1.15,2013-02-05 13:30:00,
2013-02-05 08:35:00,14.5,8.6,29.84,SE,126,2.0,6.0,77,0.00,,,0.00,Wunderground v.1.15,2013-02-05 13:35:00,
2013-02-05 08:40:00,14.5,8.9,29.84,ENE,78,2.0,2.0,78,0.00,,,0.00,Wunderground v.1.15,2013-02-05 13:40:00,
2013-02-05 08:45:00,14.6,9.0,29.84,SE,130,2.0,6.0,78,0.00,,,0.00,Wunderground v.1.15,2013-02-05 13:45:00,
2013-02-05 08:50:00,14.5,8.9,29.84,East,95,1.0,6.0,78,0.00,,,0.00,Wunderground v.1.15,2013-02-05 13:50:00,
2013-02-05 08:55:00,14.5,8.9,29.83,ESE,103,1.0,6.0,78,0.00,,,0.00,Wunderground v.1.15,2013-02-05 13:55:00,
2013-02-05 09:05:00,14.5,9.2,29.83,South,190,2.0,6.0,79,0.00,,,0.00,Wunderground v.1.15,2013-02-05 14:05:00,
2013-02-05 09:10:00,14.5,9.2,29.84,SSE,156,2.0,6.0,79,0.00,,,0.00,Wunderground v.1.15,2013-02-05 14:10:00,
2013-02-05 09:15:00,14.5,9.5,29.84,SSE,148,1.0,6.0,80,0.00,,,0.00,Wunderground v.1.15,2013-02-05 14:15:00,
2013-02-05 09:25:00,14.5,10.0,29.83,SE,142,1.0,6.0,82,0.00,,,0.00,Wunderground v.1.15,2013-02-05 14:25:00,
2013-02-05 09:30:00,14.6,10.1,29.84,ESE,113,0.0,6.0,82,0.00,,,0.00,Wunderground v.1.15,2013-02-05 14:30:00,
2013-02-05 09:40:00,15.0,10.8,29.83,ESE,111,1.0,1.0,83,0.00,,,0.00,Wunderground v.1.15,2013-02-05 14:40:00,
2013-02-05 09:45:00,15.1,11.1,29.83,East,95,1.0,6.0,84,0.00,,,0.00,Wunderground v.1.15,2013-02-05 14:45:00,
2013-02-05 09:50:00,15.0,11.0,29.83,ESE,105,1.0,6.0,84,0.00,,,0.00,Wunderground v.1.15,2013-02-05 14:50:00,
2013-02-05 09:55:00,14.9,11.2,29.82,SE,132,1.0,6.0,85,0.00,,,0.00,Wunderground v.1.15,2013-02-05 14:55:00,
2013-02-05 10:00:00,15.0,11.3,29.82,SE,134,1.0,1.0,85,0.00,,,0.00,Wunderground v.1.15,2013-02-05 15:00:00,
2013-02-05 10:10:00,15.1,11.7,29.81,ESE,106,1.0,1.0,86,0.00,,,0.00,Wunderground v.1.15,2013-02-05 15:10:00,
2013-02-05 10:15:00,15.2,11.8,29.81,East,92,2.0,2.0,86,0.00,,,0.00,Wunderground v.1.15,2013-02-05 15:15:00,
2013-02-05 10:20:00,15.4,12.0,29.80,ESE,111,3.0,3.0,86,0.00,,,0.00,Wunderground v.1.15,2013-02-05 15:20:00,
2013-02-05 10:25:00,15.6,12.2,29.80,ESE,109,3.0,6.0,86,0.00,,,0.00,Wunderground v.1.15,2013-02-05 15:25:00,
2013-02-05 10:30:00,15.9,12.5,29.80,ESE,106,2.0,6.0,86,0.00,,,0.00,Wunderground v.1.15,2013-02-05 15:30:00,
2013-02-05 10:35:00,16.1,12.7,29.80,East,92,2.0,6.0,86,0.00,,,0.00,Wunderground v.1.15,2013-02-05 15:35:00,
2013-02-05 13:01:00,20.8,18.3,29.73,East,85,3.0,3.0,90,0.00,,,0.00,Wunderground v.1.15,2013-02-05 18:01:00,
2013-02-05 13:10:00,21.2,18.7,29.73,South,188,2.0,6.0,90,0.00,,,0.00,Wunderground v.1.15,2013-02-05 18:10:00,
2013-02-05 13:15:00,21.9,19.7,29.73,SSW,202,4.0,9.0,91,0.00,,,0.00,Wunderground v.1.15,2013-02-05 18:15:00,
2013-02-05 13:20:00,22.4,19.9,29.73,SSW,195,7.0,13.0,90,0.00,,,0.00,Wunderground v.1.15,2013-02-05 18:20:00,
2013-02-05 13:25:00,22.6,20.1,29.73,SSW,206,9.0,13.0,90,0.00,,,0.00,Wunderground v.1.15,2013-02-05 18:25:00,
2013-02-05 13:30:00,22.8,20.6,29.73,SSW,207,10.0,10.0,91,0.00,,,0.00,Wunderground v.1.15,2013-02-05 18:30:00,
2013-02-05 13:35:00,23.1,20.9,29.72,SW,229,9.0,10.0,91,0.00,,,0.00,Wunderground v.1.15,2013-02-05 18:35:00,
2013-02-05 13:45:00,23.6,21.4,29.72,SW,229,9.0,12.0,91,0.00,,,0.00,Wunderground v.1.15,2013-02-05 18:45:00,
2013-02-05 13:50:00,23.5,21.3,29.73,SW,235,10.0,12.0,91,0.00,,,0.00,Wunderground v.1.15,2013-02-05 18:50:00,
2013-02-05 13:55:00,23.5,21.0,29.73,WSW,240,11.0,13.0,90,0.00,,,0.00,Wunderground v.1.15,2013-02-05 18:55:00,
2013-02-05 14:00:00,23.4,20.9,29.73,WSW,249,12.0,12.0,90,0.00,,,0.00,Wunderground v.1.15,2013-02-05 19:00:00,
2013-02-05 14:05:00,23.2,20.7,29.73,WSW,247,12.0,12.0,90,0.00,,,0.00,Wunderground v.1.15,2013-02-05 19:05:00,
2013-02-05 14:15:00,23.1,20.3,29.73,WSW,246,13.0,13.0,89,0.00,,,0.00,Wunderground v.1.15,2013-02-05 19:15:00,
2013-02-05 14:20:00,23.1,20.3,29.74,WSW,248,12.0,12.0,89,0.00,,,0.00,Wunderground v.1.15,2013-02-05 19:20:00,
2013-02-05 14:25:00,23.1,20.1,29.74,WSW,249,12.0,12.0,88,0.00,,,0.00,Wunderground v.1.15,2013-02-05 19:25:00,
2013-02-05 14:30:00,22.9,19.9,29.74,WSW,246,12.0,12.0,88,0.00,,,0.00,Wunderground v.1.15,2013-02-05 19:30:00,
2013-02-05 14:40:00,22.9,19.9,29.74,WSW,245,11.0,11.0,88,0.00,,,0.00,Wunderground v.1.15,2013-02-05 19:40:00,
2013-02-05 14:50:00,22.7,19.4,29.75,West,264,11.0,14.0,87,0.00,,,0.00,Wunderground v.1.15,2013-02-05 19:50:00,
2013-02-05 14:55:00,22.6,19.3,29.75,WSW,257,12.0,14.0,87,0.00,,,0.00,Wunderground v.1.15,2013-02-05 19:55:00,
2013-02-05 15:00:00,22.4,19.1,29.75,WSW,248,12.0,12.0,87,0.00,,,0.00,Wunderground v.1.15,2013-02-05 20:00:00,
2013-02-05 15:05:00,22.5,19.2,29.75,WSW,249,12.0,12.0,87,0.00,,,0.00,Wunderground v.1.15,2013-02-05 20:05:00,
2013-02-05 15:10:00,22.5,19.5,29.76,West,264,11.0,14.0,88,0.00,,,0.00,Wunderground v.1.15,2013-02-05 20:10:00,
2013-02-05 15:20:00,22.3,18.7,29.76,WSW,250,11.0,12.0,86,0.00,,,0.00,Wunderground v.1.15,2013-02-05 20:20:00,
2013-02-05 15:30:00,22.3,19.0,29.77,WSW,250,11.0,11.0,87,0.00,,,0.00,Wunderground v.1.15,2013-02-05 20:30:00,
2013-02-05 15:35:00,22.3,18.7,29.77,WSW,246,11.0,11.0,86,0.00,,,0.00,Wunderground v.1.15,2013-02-05 20:35:00,
2013-02-05 15:40:00,22.2,18.4,29.77,WSW,249,11.0,13.0,85,0.00,,,0.00,Wunderground v.1.15,2013-02-05 20:40:00,
2013-02-05 15:45:00,22.2,18.4,29.78,WSW,258,11.0,13.0,85,0.00,,,0.00,Wunderground v.1.15,2013-02-05 20:45:00,
2013-02-05 15:55:00,22.3,18.2,29.78,WSW,252,11.0,14.0,84,0.00,,,0.00,Wunderground v.1.15,2013-02-05 20:55:00,
2013-02-05 16:00:00,22.4,18.3,29.78,WSW,253,10.0,10.0,84,0.00,,,0.00,Wunderground v.1.15,2013-02-05 21:00:00,
2013-02-05 16:05:00,22.3,17.9,29.79,WSW,253,10.0,12.0,83,0.00,,,0.00,Wunderground v.1.15,2013-02-05 21:05:00,
2013-02-05 16:10:00,22.2,18.1,29.79,West,260,10.0,10.0,84,0.00,,,0.00,Wunderground v.1.15,2013-02-05 21:10:00,
2013-02-05 16:15:00,22.2,18.1,29.80,WSW,254,10.0,10.0,84,0.00,,,0.00,Wunderground v.1.15,2013-02-05 21:15:00,
2013-02-05 16:25:00,22.1,17.7,29.81,WSW,248,11.0,13.0,83,0.00,,,0.00,Wunderground v.1.15,2013-02-05 21:25:00,
2013-02-05 16:30:00,22.2,17.8,29.81,West,259,11.0,11.0,83,0.00,,,0.00,Wunderground v.1.15,2013-02-05 21:30:00,
2013-02-05 16:35:00,22.2,17.3,29.81,West,276,11.0,11.0,81,0.00,,,0.00,Wunderground v.1.15,2013-02-05 21:35:00,
2013-02-05 16:40:00,22.3,17.6,29.81,West,270,11.0,12.0,82,0.00,,,0.00,Wunderground v.1.15,2013-02-05 21:40:00,
2013-02-05 16:45:00,22.1,16.9,29.81,West,273,11.0,12.0,80,0.00,,,0.00,Wunderground v.1.15,2013-02-05 21:45:00,
2013-02-05 16:50:00,22.1,17.4,29.82,West,268,11.0,11.0,82,0.00,,,0.00,Wunderground v.1.15,2013-02-05 21:50:00,
2013-02-05 17:00:00,21.7,16.5,29.82,West,269,10.0,11.0,80,0.00,,,0.00,Wunderground v.1.15,2013-02-05 22:00:00,
2013-02-05 17:05:00,21.6,16.4,29.82,West,270,10.0,11.0,80,0.00,,,0.00,Wunderground v.1.15,2013-02-05 22:05:00,
2013-02-05 17:10:00,21.8,16.6,29.83,West,271,10.0,10.0,80,0.00,,,0.00,Wunderground v.1.15,2013-02-05 22:10:00,
2013-02-05 17:15:00,21.9,17.0,29.83,West,276,10.0,10.0,81,0.00,,,0.00,Wunderground v.1.15,2013-02-05 22:15:00,
2013-02-05 17:20:00,21.6,16.4,29.83,West,280,9.0,9.0,80,0.00,,,0.00,Wunderground v.1.15,2013-02-05 22:20:00,
2013-02-05 17:30:00,21.5,16.3,29.83,West,275,9.0,10.0,80,0.00,,,0.00,Wunderground v.1.15,2013-02-05 22:30:00,
2013-02-05 17:35:00,21.4,16.5,29.84,West,271,8.0,10.0,81,0.00,,,0.00,Wunderground v.1.15,2013-02-05 22:35:00,
2013-02-05 17:40:00,21.3,16.1,29.84,NW,307,7.0,8.0,80,0.00,,,0.00,Wunderground v.1.15,2013-02-05 22:40:00,
2013-02-05 17:45:00,21.3,15.2,29.84,WNW,290,7.0,8.0,77,0.00,,,0.00,Wunderground v.1.15,2013-02-05 22:45:00,
2013-02-05 17:50:00,21.3,15.2,29.85,NNW,330,6.0,6.0,77,0.00,,,0.00,Wunderground v.1.15,2013-02-05 22:50:00,
2013-02-05 17:55:00,21.4,15.6,29.85,WNW,294,5.0,6.0,78,0.00,,,0.00,Wunderground v.1.15,2013-02-05 22:55:00,
2013-02-05 18:05:00,21.8,16.0,29.86,WNW,288,6.0,8.0,78,0.00,,,0.00,Wunderground v.1.15,2013-02-05 23:05:00,
2013-02-05 18:10:00,21.8,15.4,29.86,WNW,284,6.0,6.0,76,0.00,,,0.00,Wunderground v.1.15,2013-02-05 23:10:00,
2013-02-05 18:15:00,22.0,16.2,29.86,WNW,296,6.0,6.0,78,0.00,,,0.00,Wunderground v.1.15,2013-02-05 23:15:00,
2013-02-05 18:20:00,22.3,16.2,29.86,West,267,7.0,9.0,77,0.00,,,0.00,Wunderground v.1.15,2013-02-05 23:20:00,
2013-02-05 18:25:00,22.5,16.4,29.86,West,265,8.0,9.0,77,0.00,,,0.00,Wunderground v.1.15,2013-02-05 23:25:00,
2013-02-05 18:35:00,22.2,15.8,29.86,West,275,6.0,7.0,76,0.00,,,0.00,Wunderground v.1.15,2013-02-05 23:35:00,
2013-02-05 18:40:00,21.9,15.5,29.87,WNW,290,6.0,6.0,76,0.00,,,0.00,Wunderground v.1.15,2013-02-05 23:40:00,
2013-02-05 18:45:00,21.6,15.2,29.87,WNW,294,4.0,6.0,76,0.00,,,0.00,Wunderground v.1.15,2013-02-05 23:45:00,
2013-02-05 18:50:00,21.6,15.2,29.87,NW,319,3.0,3.0,76,0.00,,,0.00,Wunderground v.1.15,2013-02-05 23:50:00,
2013-02-05 18:55:00,21.8,15.4,29.87,NW,313,3.0,6.0,76,0.00,,,0.00,Wunderground v.1.15,2013-02-05 23:55:00,
2013-02-05 19:00:00,22.2,15.8,29.88,NW,314,2.0,6.0,76,0.00,,,0.00,Wunderground v.1.15,2013-02-06 00:00:00,
2013-02-05 19:10:00,22.8,16.1,29.88,WNW,291,4.0,6.0,75,0.00,,,0.00,Wunderground v.1.15,2013-02-06 00:10:00,
2013-02-05 19:15:00,23.1,17.0,29.88,WNW,284,5.0,6.0,77,0.00,,,0.00,Wunderground v.1.15,2013-02-06 00:15:00,
2013-02-05 19:20:00,23.3,16.9,29.89,NNE,13,5.0,5.0,76,0.00,,,0.00,Wunderground v.1.15,2013-02-06 00:20:00,
2013-02-05 19:25:00,23.5,17.3,29.89,WNW,300,5.0,6.0,77,0.00,,,0.00,Wunderground v.1.15,2013-02-06 00:25:00,
2013-02-05 19:30:00,23.8,17.6,29.89,WNW,301,5.0,9.0,77,0.00,,,0.00,Wunderground v.1.15,2013-02-06 00:30:00,
2013-02-05 19:40:00,23.8,17.0,29.90,NW,309,7.0,7.0,75,0.00,,,0.00,Wunderground v.1.15,2013-02-06 00:40:00,
2013-02-05 19:45:00,23.6,17.4,29.90,WNW,299,6.0,7.0,77,0.00,,,0.00,Wunderground v.1.15,2013-02-06 00:45:00,
2013-02-05 19:50:00,23.3,17.5,29.91,WNW,301,5.0,6.0,78,0.00,,,0.00,Wunderground v.1.15,2013-02-06 00:50:00,
2013-02-05 19:55:00,23.1,17.3,29.91,WNW,300,5.0,8.0,78,0.00,,,0.00,Wunderground v.1.15,2013-02-06 00:55:00,
2013-02-05 20:00:00,22.9,17.1,29.92,WNW,300,6.0,6.0,78,0.00,,,0.00,Wunderground v.1.15,2013-02-06 01:00:00,
2013-02-05 20:05:00,22.7,16.6,29.92,North,360,5.0,6.0,77,0.00,,,0.00,Wunderground v.1.15,2013-02-06 01:05:00,
2013-02-05 20:15:00,22.5,16.1,29.92,WNW,303,5.0,6.0,76,0.00,,,0.00,Wunderground v.1.15,2013-02-06 01:15:00,
2013-02-05 20:20:00,22.5,15.8,29.92,NW,313,5.0,5.0,75,0.00,,,0.00,Wunderground v.1.15,2013-02-06 01:20:00,
2013-02-05 20:25:00,22.6,16.2,29.93,NW,311,6.0,6.0,76,0.00,,,0.00,Wunderground v.1.15,2013-02-06 01:25:00,
2013-02-05 20:30:00,22.5,15.8,29.93,NW,305,5.0,8.0,75,0.00,,,0.00,Wunderground v.1.15,2013-02-06 01:30:00,
2013-02-05 20:35:00,22.8,16.1,29.94,NW,306,7.0,8.0,75,0.00,,,0.00,Wunderground v.1.15,2013-02-06 01:35:00,
2013-02-05 20:45:00,23.0,15.6,29.94,WNW,296,9.0,11.0,73,0.00,,,0.00,Wunderground v.1.15,2013-02-06 01:45:00,
2013-02-05 20:50:00,23.0,15.3,29.94,NNW,327,9.0,12.0,72,0.00,,,0.00,Wunderground v.1.15,2013-02-06 01:50:00,
2013-02-05 20:55:00,23.1,15.4,29.95,WNW,302,9.0,12.0,72,0.00,,,0.00,Wunderground v.1.15,2013-02-06 01:55:00,
2013-02-05 21:00:00,23.2,15.5,29.95,WNW,299,9.0,9.0,72,0.00,,,0.00,Wunderground v.1.15,2013-02-06 02:00:00,
2013-02-05 21:05:00,23.4,15.7,29.95,West,269,9.0,11.0,72,0.00,,,0.00,Wunderground v.1.15,2013-02-06 02:05:00,
2013-02-05 21:10:00,23.3,17.2,29.95,WNW,292,12.0,12.0,77,0.00,,,0.00,Wunderground v.1.15,2013-02-06 02:10:00,
2013-02-05 21:20:00,23.1,17.0,29.96,WNW,299,11.0,11.0,77,0.00,,,0.00,Wunderground v.1.15,2013-02-06 02:20:00,
2013-02-05 21:25:00,22.9,15.2,29.96,NW,313,10.0,11.0,72,0.00,,,0.00,Wunderground v.1.15,2013-02-06 02:25:00,
2013-02-05 21:30:00,22.9,14.6,29.96,WNW,296,8.0,8.0,70,0.00,,,0.00,Wunderground v.1.15,2013-02-06 02:30:00,
2013-02-05 21:35:00,22.9,15.5,29.96,West,277,8.0,8.0,73,0.00,,,0.00,Wunderground v.1.15,2013-02-06 02:35:00,
2013-02-05 21:40:00,23.0,16.9,29.96,NW,304,9.0,9.0,77,0.00,,,0.00,Wunderground v.1.15,2013-02-06 02:40:00,
2013-02-05 21:50:00,22.9,17.1,29.97,WNW,282,10.0,10.0,78,0.00,,,0.00,Wunderground v.1.15,2013-02-06 02:50:00,
2013-02-05 21:55:00,22.8,16.7,29.97,West,277,11.0,11.0,77,0.00,,,0.00,Wunderground v.1.15,2013-02-06 02:55:00,
2013-02-05 22:00:00,22.6,16.2,29.97,WNW,298,11.0,11.0,76,0.00,,,0.00,Wunderground v.1.15,2013-02-06 03:00:00,
2013-02-05 22:05:00,22.5,16.1,29.98,West,281,11.0,11.0,76,0.00,,,0.00,Wunderground v.1.15,2013-02-06 03:05:00,
2013-02-05 22:10:00,22.4,15.7,29.98,WNW,286,11.0,11.0,75,0.00,,,0.00,Wunderground v.1.15,2013-02-06 03:10:00,
2013-02-05 22:15:00,22.7,16.3,29.98,WNW,289,11.0,11.0,76,0.00,,,0.00,Wunderground v.1.15,2013-02-06 03:15:00,
2013-02-05 22:25:00,22.7,15.7,29.99,WNW,289,11.0,11.0,74,0.00,,,0.00,Wunderground v.1.15,2013-02-06 03:25:00,
2013-02-05 22:30:00,22.4,16.0,29.99,West,260,11.0,15.0,76,0.00,,,0.00,Wunderground v.1.15,2013-02-06 03:30:00,
2013-02-05 22:35:00,22.1,14.8,30.00,WNW,294,11.0,15.0,73,0.00,,,0.00,Wunderground v.1.15,2013-02-06 03:35:00,
2013-02-05 22:40:00,21.7,13.7,30.00,NW,308,10.0,11.0,71,0.00,,,0.00,Wunderground v.1.15,2013-02-06 03:40:00,
2013-02-05 22:45:00,21.5,14.2,30.00,NW,311,9.0,11.0,73,0.00,,,0.00,Wunderground v.1.15,2013-02-06 03:45:00,
2013-02-05 22:55:00,21.3,14.3,30.01,NNW,327,9.0,9.0,74,0.00,,,0.00,Wunderground v.1.15,2013-02-06 03:55:00,
2013-02-05 23:00:00,21.3,13.4,30.01,WNW,282,9.0,9.0,71,0.00,,,0.00,Wunderground v.1.15,2013-02-06 04:00:00,
2013-02-05 23:05:00,21.2,12.6,30.01,NW,316,8.0,9.0,69,0.00,,,0.00,Wunderground v.1.15,2013-02-06 04:05:00,
2013-02-05 23:10:00,21.2,13.6,30.02,WNW,296,7.0,10.0,72,0.00,,,0.00,Wunderground v.1.15,2013-02-06 04:10:00,
2013-02-05 23:15:00,21.3,14.3,30.02,WNW,292,8.0,10.0,74,0.00,,,0.00,Wunderground v.1.15,2013-02-06 04:15:00,
2013-02-05 23:20:00,21.2,14.2,30.02,West,272,10.0,10.0,74,0.00,,,0.00,Wunderground v.1.15,2013-02-06 04:20:00,
2013-02-05 23:30:00,20.8,14.1,30.02,WNW,300,9.0,13.0,75,0.00,,,0.00,Wunderground v.1.15,2013-02-06 04:30:00,
2013-02-05 23:35:00,20.7,13.4,30.02,WNW,284,9.0,13.0,73,0.00,,,0.00,Wunderground v.1.15,2013-02-06 04:35:00,
2013-02-05 23:40:00,20.6,13.3,30.03,WNW,300,9.0,9.0,73,0.00,,,0.00,Wunderground v.1.15,2013-02-06 04:40:00,
2013-02-05 23:45:00,20.7,15.2,30.03,WNW,292,9.0,10.0,79,0.00,,,0.00,Wunderground v.1.15,2013-02-06 04:45:00,
2013-02-05 23:50:00,20.6,16.0,30.03,WNW,283,10.0,10.0,82,0.00,,,0.00,Wunderground v.1.15,2013-02-06 04:50:00,